Time;durP1;ratioP1;P1;durP2;ratioP2;P2;SDS_P1;SDS_P2;PMS_P1;PMS_P2;Temp;Humidity;BMP_temperature;BMP_pressure;BME280_temperature;BME280_humidity;BME280_pressure;Samples;Min_cycle;Max_cycle;Signal;HPM_P1;HPM_P2
2022/04/10 00:01:32;;;;;;;6.45;2.20;;;;;;;2.31;68.26;98315.44;1743661;81;20985;-64
2022/04/10 00:03:59;;;;;;;10.38;2.37;;;;;;;2.33;68.25;98313.65;1743258;81;21673;-64
2022/04/10 00:06:26;;;;;;;10.70;2.75;;;;;;;2.35;68.28;98308.42;1740117;81;21502;-64
2022/04/10 00:08:53;;;;;;;8.68;1.90;;;;;;;2.37;68.44;98319.06;1736995;81;20986;-64
2022/04/10 00:11:21;;;;;;;9.70;2.10;;;;;;;2.40;68.47;98315.54;1732037;81;21490;-64
2022/04/10 00:13:48;;;;;;;6.17;2.17;;;;;;;2.41;68.62;98318.08;1735875;81;21512;-64
2022/04/10 00:16:15;;;;;;;12.73;2.83;;;;;;;2.42;68.57;98321.03;1744509;81;21014;-64
2022/04/10 00:18:41;;;;;;;8.20;1.93;;;;;;;2.43;68.55;98323.98;1733987;81;21007;-64
2022/04/10 00:21:08;;;;;;;8.65;2.40;;;;;;;2.43;68.65;98321.41;1737050;80;21102;-64
2022/04/10 00:23:35;;;;;;;5.92;2.05;;;;;;;2.44;68.66;98319.25;1744658;81;21093;-64
2022/04/10 00:26:01;;;;;;;8.47;2.20;;;;;;;2.44;68.83;98323.11;1724838;82;21009;-64
2022/04/10 00:28:28;;;;;;;8.85;2.50;;;;;;;2.46;68.73;98321.75;1750864;81;21487;-64
2022/04/10 00:30:55;;;;;;;6.63;1.90;;;;;;;2.48;68.72;98321.70;1754401;81;21024;-64
2022/04/10 00:33:22;;;;;;;6.28;2.15;;;;;;;2.45;68.81;98326.06;1748084;81;21573;-64
2022/04/10 00:35:48;;;;;;;4.97;1.75;;;;;;;2.43;68.82;98321.41;1720891;81;21579;-64
2022/04/10 00:38:16;;;;;;;11.60;2.22;;;;;;;2.45;68.93;98320.91;1697860;83;21039;-64
2022/04/10 00:40:42;;;;;;;9.93;2.53;;;;;;;2.43;68.89;98324.44;1725066;82;20958;-64
2022/04/10 00:43:09;;;;;;;6.42;1.72;;;;;;;2.40;69.01;98311.22;1710153;82;21616;-64
2022/04/10 00:45:39;;;;;;;5.92;2.17;;;;;;;2.39;69.07;98323.72;1707993;82;21611;-64
2022/04/10 00:48:06;;;;;;;8.95;2.50;;;;;;;2.39;69.17;98318.57;1717978;81;21569;-64
2022/04/10 00:50:33;;;;;;;10.85;2.50;;;;;;;2.40;69.27;98317.66;1741014;81;21028;-65
2022/04/10 00:52:59;;;;;;;6.53;2.00;;;;;;;2.42;69.36;98321.03;1702599;83;21038;-65
2022/04/10 00:55:27;;;;;;;11.33;2.30;;;;;;;2.45;69.58;98326.06;1732518;81;21018;-65
2022/04/10 00:57:53;;;;;;;6.33;1.57;;;;;;;2.46;69.38;98325.19;1709997;82;27068;-65
2022/04/10 01:00:20;;;;;;;7.28;1.52;;;;;;;2.48;69.62;98321.70;1703012;83;20924;-65
2022/04/10 01:02:47;;;;;;;11.23;2.50;;;;;;;2.48;69.65;98326.86;1702949;81;21030;-65
2022/04/10 01:05:14;;;;;;;8.18;2.10;;;;;;;2.35;69.96;98301.56;1718814;82;21050;-65
2022/04/10 01:07:41;;;;;;;8.25;1.85;;;;;;;2.35;69.96;98301.56;1716457;83;21022;-65
2022/04/10 01:10:08;;;;;;;11.83;2.00;;;;;;;2.50;69.82;98327.66;1707513;83;21710;-65
2022/04/10 01:12:35;;;;;;;8.48;2.17;;;;;;;2.49;70.11;98334.97;1711114;83;28413;-65
2022/04/10 01:15:04;;;;;;;9.53;2.72;;;;;;;2.46;70.11;98337.20;1706668;83;20987;-65
2022/04/10 01:17:31;;;;;;;5.72;2.00;;;;;;;2.43;70.07;98348.46;1713495;83;21048;-65
2022/04/10 01:19:59;;;;;;;5.97;1.87;;;;;;;2.34;70.07;98343.65;1724626;81;20898;-64
2022/04/10 01:22:34;;;;;;;6.40;1.50;;;;;;;2.16;70.13;98355.45;1706608;82;21088;-64
2022/04/10 01:25:05;;;;;;;4.25;1.85;;;;;;;2.01;70.19;98346.51;1724664;82;21547;-64
2022/04/10 01:27:37;;;;;;;6.90;1.80;;;;;;;1.87;70.28;98346.14;1715385;82;20954;-64
2022/04/10 01:30:07;;;;;;;5.58;1.77;;;;;;;1.78;70.42;98345.18;1721048;82;20970;-64
2022/04/10 01:32:33;;;;;;;4.10;1.87;;;;;;;1.75;70.61;98347.86;1713072;82;21018;-64
2022/04/10 01:35:03;;;;;;;7.72;2.22;;;;;;;1.69;70.81;98350.64;1722971;83;21587;-64
2022/04/10 01:37:31;;;;;;;7.20;2.42;;;;;;;1.68;70.91;98356.66;1709960;82;21072;-65
2022/04/10 01:39:58;;;;;;;6.65;1.92;;;;;;;1.68;71.00;98357.95;1708053;84;21020;-65
2022/04/10 01:42:25;;;;;;;7.77;2.33;;;;;;;1.71;71.14;98357.84;1738425;81;21495;-64
2022/04/10 01:44:52;;;;;;;10.50;2.60;;;;;;;1.73;71.27;98354.33;1717181;81;21686;-64
2022/04/10 01:47:19;;;;;;;10.18;2.00;;;;;;;1.72;71.61;98351.83;1719546;82;21475;-65
2022/04/10 01:49:46;;;;;;;7.72;2.20;;;;;;;1.74;71.68;98361.63;1724563;82;21059;-64
2022/04/10 01:52:12;;;;;;;10.17;2.53;;;;;;;1.73;71.48;98353.49;1720045;82;21009;-65
2022/04/10 01:54:39;;;;;;;8.33;1.70;;;;;;;1.74;71.55;98360.34;1694777;84;20973;-65
2022/04/10 01:57:08;;;;;;;6.07;1.97;;;;;;;1.74;71.79;98352.63;1734253;82;21024;-64
2022/04/10 01:59:35;;;;;;;5.92;2.08;;;;;;;1.75;71.81;98362.84;1727209;82;21594;-64
2022/04/10 02:02:01;;;;;;;7.60;2.00;;;;;;;1.75;71.94;98369.73;1686782;82;20973;-65
2022/04/10 02:04:28;;;;;;;6.90;2.30;;;;;;;1.75;72.05;98369.73;1712864;82;21064;-65
2022/04/10 02:06:55;;;;;;;10.60;2.45;;;;;;;1.76;72.02;98373.98;1728802;82;20954;-64
2022/04/10 02:09:22;;;;;;;7.92;2.17;;;;;;;1.71;72.11;98375.44;1731057;82;20990;-64
2022/04/10 02:11:49;;;;;;;7.97;2.30;;;;;;;1.66;72.10;98375.19;1721862;82;21415;-65
2022/04/10 02:14:16;;;;;;;11.15;2.67;;;;;;;1.64;72.01;98374.39;1720767;82;21597;-65
2022/04/10 02:16:43;;;;;;;8.78;1.92;;;;;;;1.60;72.27;98374.08;1723495;82;20954;-64
2022/04/10 02:19:09;;;;;;;5.57;2.13;;;;;;;1.61;72.43;98377.06;1714803;82;21613;-64
2022/04/10 02:21:37;;;;;;;8.25;1.90;;;;;;;1.60;72.56;98376.66;1721052;82;21036;-64
2022/04/10 02:24:05;;;;;;;7.15;1.90;;;;;;;1.58;72.64;98382.31;1716950;82;25953;-65
2022/04/10 02:26:32;;;;;;;5.28;2.25;;;;;;;1.58;72.73;98370.28;1713735;82;20938;-65
2022/04/10 02:28:59;;;;;;;11.05;2.22;;;;;;;1.58;72.78;98364.31;1727493;82;20902;-64
2022/04/10 02:31:25;;;;;;;8.15;2.72;;;;;;;1.57;72.65;98371.19;1714066;82;21000;-64
2022/04/10 02:33:52;;;;;;;8.70;2.50;;;;;;;1.54;72.79;98372.13;1703374;83;20950;-64
2022/04/10 02:36:19;;;;;;;7.57;2.10;;;;;;;1.52;72.88;98371.33;1699745;84;21669;-64
2022/04/10 02:38:46;;;;;;;11.40;3.00;;;;;;;1.50;72.84;98372.27;1698834;84;20965;-64
2022/04/10 02:41:12;;;;;;;6.80;1.85;;;;;;;1.48;73.08;98367.16;1701809;84;21345;-64
2022/04/10 02:43:40;;;;;;;9.60;2.47;;;;;;;1.45;73.19;98373.69;1702456;84;21531;-64
2022/04/10 02:46:07;;;;;;;8.40;1.98;;;;;;;1.47;73.20;98373.65;1698786;82;21005;-64
2022/04/10 02:48:34;;;;;;;7.33;2.30;;;;;;;1.51;73.54;98359.36;1690470;82;21303;-65
2022/04/10 02:51:02;;;;;;;9.20;2.05;;;;;;;1.53;73.76;98369.14;1700528;84;21064;-64
2022/04/10 02:53:30;;;;;;;6.10;2.00;;;;;;;1.54;73.54;98369.55;1700192;84;20977;-65
2022/04/10 02:55:57;;;;;;;8.85;1.90;;;;;;;1.52;73.40;98363.61;1699182;84;21014;-64
2022/04/10 02:58:24;;;;;;;9.10;2.42;;;;;;;1.51;73.45;98369.66;1699130;84;21118;-64
2022/04/10 03:00:51;;;;;;;11.38;2.40;;;;;;;1.51;73.47;98372.23;1695676;84;21473;-65
2022/04/10 03:03:18;;;;;;;;;;;;;;;1.46;73.51;98359.95;1705161;84;21716;-64
2022/04/10 03:05:44;;;;;;;10.53;2.08;;;;;;;1.44;73.61;98359.16;1703223;82;20208;-64
2022/04/10 03:08:11;;;;;;;6.67;2.10;;;;;;;1.37;73.64;98362.80;1691691;84;21057;-64
2022/04/10 03:10:38;;;;;;;6.53;2.43;;;;;;;1.29;73.63;98377.66;1695568;84;20978;-64
2022/04/10 03:13:05;;;;;;;10.13;2.33;;;;;;;1.25;73.79;98373.48;1696596;84;21861;-64
2022/04/10 03:15:32;;;;;;;8.25;1.98;;;;;;;1.21;73.87;98368.05;1704662;84;21122;-65
2022/04/10 03:17:58;;;;;;;8.70;2.62;;;;;;;1.19;73.93;98373.67;1704683;84;20971;-65
2022/04/10 03:20:25;;;;;;;10.75;2.08;;;;;;;1.16;74.08;98373.77;1698240;82;21263;-65
2022/04/10 03:22:52;;;;;;;14.73;2.70;;;;;;;1.18;74.20;98378.44;1702268;83;20986;-64
2022/04/10 03:25:19;;;;;;;7.33;2.15;;;;;;;1.21;74.51;98379.63;1694280;82;21891;-64
2022/04/10 03:27:45;;;;;;;8.53;2.42;;;;;;;1.26;74.50;98380.30;1701580;84;20983;-64
2022/04/10 03:30:12;;;;;;;10.65;2.35;;;;;;;1.33;74.66;98379.23;1702209;84;21587;-65
2022/04/10 03:32:40;;;;;;;8.00;2.00;;;;;;;1.39;74.78;98388.03;1704062;82;21075;-64
2022/04/10 03:35:08;;;;;;;13.05;1.70;;;;;;;1.44;74.70;98375.04;1703313;84;21087;-64
2022/04/10 03:37:35;;;;;;;9.68;2.00;;;;;;;1.45;74.58;98377.55;1704238;82;21924;-64
2022/04/10 03:40:04;;;;;;;6.42;1.77;;;;;;;1.45;74.60;98381.41;1700648;84;21076;-64
2022/04/10 03:42:39;;;;;;;7.35;1.90;;;;;;;1.45;74.64;98382.69;1695884;84;20985;-64
2022/04/10 03:45:10;;;;;;;9.40;2.58;;;;;;;1.43;74.67;98389.63;1687264;84;21678;-65
2022/04/10 03:47:37;;;;;;;7.40;1.90;;;;;;;1.40;74.69;98387.16;1703677;82;21041;-65
2022/04/10 03:50:06;;;;;;;5.92;1.57;;;;;;;1.40;74.78;98400.02;1697377;82;21596;-66
2022/04/10 03:52:33;;;;;;;7.90;1.65;;;;;;;1.41;74.97;98400.41;1702476;84;21030;-65
2022/04/10 03:54:59;;;;;;;9.65;2.45;;;;;;;1.43;74.95;98404.20;1698275;84;20987;-65
2022/04/10 03:57:26;;;;;;;6.03;2.00;;;;;;;1.41;74.89;98402.14;1700459;82;20981;-65
2022/04/10 03:59:53;;;;;;;7.00;2.30;;;;;;;1.41;74.98;98417.13;1698730;84;20915;-65
2022/04/10 04:02:22;;;;;;;7.85;1.90;;;;;;;1.44;75.12;98414.91;1685761;84;21253;-65
2022/04/10 04:04:51;;;;;;;7.65;1.70;;;;;;;1.45;75.24;98413.55;1700555;84;21006;-65
2022/04/10 04:07:18;;;;;;;8.23;2.30;;;;;;;1.51;75.34;98413.39;1690492;82;21020;-65
2022/04/10 04:09:45;;;;;;;6.47;2.10;;;;;;;1.61;75.43;98414.38;1702846;84;21061;-65
2022/04/10 04:12:11;;;;;;;9.63;2.52;;;;;;;1.73;75.43;98438.41;1703196;82;21630;-65
2022/04/10 04:14:38;;;;;;;7.85;2.58;;;;;;;1.84;75.44;98422.63;1704104;84;21227;-65
2022/04/10 04:17:05;;;;;;;9.20;2.27;;;;;;;1.99;75.60;98425.55;1702539;84;21557;-65
2022/04/10 04:19:33;;;;;;;9.53;2.17;;;;;;;2.21;75.50;98432.53;1698410;83;20967;-65
2022/04/10 04:22:00;;;;;;;6.03;1.90;;;;;;;2.37;75.51;98432.41;1702586;82;21046;-65
2022/04/10 04:24:27;;;;;;;7.97;2.30;;;;;;;2.41;75.30;98430.14;1703450;82;21090;-65
2022/04/10 04:26:53;;;;;;;8.03;1.65;;;;;;;2.34;75.17;98431.23;1704319;84;21458;-65
2022/04/10 04:29:20;;;;;;;10.82;2.90;;;;;;;2.28;75.31;98428.87;1700477;82;21082;-65
2022/04/10 04:31:47;;;;;;;6.20;1.60;;;;;;;2.22;75.27;98441.97;1697955;84;21029;-65
2022/04/10 04:34:14;;;;;;;5.65;2.00;;;;;;;2.24;75.60;98453.03;1696669;83;20990;-65
2022/04/10 04:36:41;;;;;;;11.63;2.02;;;;;;;2.31;75.72;98446.80;1695725;83;20973;-65
2022/04/10 04:39:07;;;;;;;8.23;2.17;;;;;;;2.60;75.92;98452.66;1701033;83;21469;-65
2022/04/10 04:41:34;;;;;;;5.60;1.80;;;;;;;3.10;75.94;98452.58;1707067;83;21606;-66
2022/04/10 04:44:01;;;;;;;5.50;1.70;;;;;;;3.04;75.27;98450.23;1703765;83;21042;-65
2022/04/10 04:46:28;;;;;;;8.28;1.87;;;;;;;2.89;75.23;98465.37;1707223;83;21100;-65
2022/04/10 04:48:54;;;;;;;8.00;1.93;;;;;;;2.74;75.38;98471.05;1713327;82;20986;-65
2022/04/10 04:51:21;;;;;;;7.37;2.20;;;;;;;2.63;75.52;98470.59;1702960;83;22325;-65
2022/04/10 04:53:48;;;;;;;6.00;1.87;;;;;;;2.53;75.59;98475.24;1703336;83;21801;-65
2022/04/10 04:56:15;;;;;;;5.62;1.80;;;;;;;2.45;75.74;98478.07;1707727;83;20915;-64
2022/04/10 04:58:43;;;;;;;5.70;1.80;;;;;;;2.40;75.86;98494.58;1700795;83;21025;-64
2022/04/10 05:01:10;;;;;;;8.33;2.10;;;;;;;2.42;76.00;98498.79;1706881;83;20997;-64
2022/04/10 05:03:37;;;;;;;7.12;1.70;;;;;;;2.44;76.05;98507.31;1705450;83;21694;-64
2022/04/10 05:06:04;;;;;;;7.33;2.40;;;;;;;2.46;76.11;98499.09;1702204;83;21571;-67
2022/04/10 05:08:31;;;;;;;5.40;1.90;;;;;;;2.49;76.09;98504.56;1700116;83;21056;-66
2022/04/10 05:10:59;;;;;;;;;;;;;;;2.49;76.12;98508.88;1707198;83;20998;-65
2022/04/10 05:13:27;;;;;;;5.85;2.00;;;;;;;2.52;76.24;98508.35;1694690;83;20166;-65
2022/04/10 05:15:54;;;;;;;5.60;2.10;;;;;;;2.55;76.19;98516.39;1704994;83;21185;-64
2022/04/10 05:18:21;;;;;;;6.10;2.07;;;;;;;2.58;76.26;98516.33;1706418;83;21599;-65
2022/04/10 05:20:47;;;;;;;8.58;2.05;;;;;;;2.60;76.28;98514.51;1708142;83;20974;-65
2022/04/10 05:23:20;;;;;;;5.55;1.92;;;;;;;2.62;76.28;98517.89;1708078;83;21085;-67
2022/04/10 05:25:50;;;;;;;6.33;1.77;;;;;;;2.64;76.39;98513.53;1696100;83;20959;-65
2022/04/10 05:28:17;;;;;;;7.55;1.92;;;;;;;2.61;76.34;98527.36;1706616;83;21108;-65
2022/04/10 05:30:47;;;;;;;5.97;1.82;;;;;;;2.63;76.40;98529.86;1696618;83;20947;-66
2022/04/10 05:33:14;;;;;;;8.58;2.05;;;;;;;2.69;76.44;98533.55;1685289;83;20950;-65
2022/04/10 05:36:18;;;;;;;;;;;;;;;;;;;;;
2022/04/10 05:38:39;;;;;;;7.05;1.67;;;;;;;2.76;76.57;98539.33;1707126;83;20990;-65
2022/04/10 05:41:06;;;;;;;8.55;2.58;;;;;;;2.81;76.54;98542.13;1715385;83;21153;-65
2022/04/10 05:43:34;;;;;;;5.03;2.33;;;;;;;2.85;76.53;98548.85;1717739;82;21491;-69
2022/04/10 05:46:01;;;;;;;5.65;1.65;;;;;;;2.97;76.56;98542.45;1721797;83;21054;-66
2022/04/10 05:48:27;;;;;;;9.38;2.05;;;;;;;3.05;76.58;98544.73;1718606;83;21085;-67
2022/04/10 05:50:54;;;;;;;11.10;2.37;;;;;;;3.10;76.52;98552.70;1705244;83;21061;-66
2022/04/10 05:53:25;;;;;;;5.42;2.15;;;;;;;3.16;76.59;98558.09;1689864;83;21923;-66
2022/04/10 05:55:51;;;;;;;7.08;1.75;;;;;;;3.29;76.69;98554.18;1713310;83;21053;-67
2022/04/10 05:58:18;;;;;;;5.45;1.62;;;;;;;3.36;76.56;98558.23;1709501;83;21605;-66
2022/04/10 06:00:45;;;;;;;9.98;2.52;;;;;;;3.38;76.50;98565.06;1683346;83;21111;-65
2022/04/10 06:03:12;;;;;;;11.18;2.42;;;;;;;3.42;76.62;98574.36;1693331;83;20958;-66
2022/04/10 06:05:43;;;;;;;8.15;2.15;;;;;;;3.50;76.69;98580.09;1704657;83;21141;-66
2022/04/10 06:08:11;;;;;;;;;;;;;;;3.58;76.68;98561.29;1714708;83;21018;-66
2022/04/10 06:10:43;;;;;;;10.35;2.27;;;;;;;3.67;76.71;98567.42;1716585;83;20156;-66
2022/04/10 06:13:11;;;;;;;8.90;2.20;;;;;;;3.85;76.83;98581.81;1695502;83;20997;-66
2022/04/10 06:15:38;;;;;;;9.15;2.08;;;;;;;4.11;76.83;98575.17;1692867;83;20963;-66
2022/04/10 06:18:07;;;;;;;7.83;2.33;;;;;;;4.16;76.51;98581.01;1705205;83;21890;-65
2022/04/10 06:20:34;;;;;;;7.55;2.20;;;;;;;4.21;76.49;98589.42;1686246;83;21105;-65
2022/04/10 06:23:02;;;;;;;11.57;2.33;;;;;;;4.21;76.41;98592.01;1705906;83;21068;-66
2022/04/10 06:25:29;;;;;;;6.75;2.33;;;;;;;4.16;76.41;98586.17;1706701;83;21359;-66
2022/04/10 06:27:58;;;;;;;6.00;1.80;;;;;;;4.12;76.40;98592.38;1711815;82;20962;-66
2022/04/10 06:30:25;;;;;;;9.73;2.42;;;;;;;4.03;76.43;98590.13;1697389;83;21470;-65
2022/04/10 06:32:51;;;;;;;10.88;2.85;;;;;;;3.96;76.44;98599.03;1702250;83;20958;-65
2022/04/10 06:35:19;;;;;;;7.33;2.45;;;;;;;3.97;76.57;98603.29;1703729;82;20966;-65
2022/04/10 06:37:45;;;;;;;;;;;;;;;4.01;76.63;98602.28;1718629;82;21013;-64
2022/04/10 06:40:13;;;;;;;12.13;3.20;;;;;;;4.06;76.61;98611.13;1712254;82;20108;-65
2022/04/10 06:42:40;;;;;;;8.70;2.20;;;;;;;4.06;76.56;98618.42;1713313;82;21860;-65
2022/04/10 06:45:08;;;;;;;11.50;2.30;;;;;;;4.12;76.54;98616.92;1705018;82;28101;-65
2022/04/10 06:49:20;;;;;;;9.10;2.70;;;;;;;4.34;76.76;98619.94;1865825;75;22405;-65
2022/04/10 06:51:47;;;;;;;9.68;2.55;;;;;;;4.40;76.39;98621.02;1838302;76;20966;-65
2022/04/10 06:54:13;;;;;;;8.40;2.73;;;;;;;4.42;76.41;98629.52;1837483;75;21515;-65
2022/04/10 06:56:41;;;;;;;10.85;2.87;;;;;;;4.53;76.58;98620.89;1842938;75;21083;-65
2022/04/10 06:59:07;;;;;;;9.55;3.10;;;;;;;4.62;76.44;98635.19;1844003;76;20993;-65
2022/04/10 07:01:35;;;;;;;8.47;2.57;;;;;;;4.94;76.93;98631.30;1845796;76;21092;-65
2022/04/10 07:04:03;;;;;;;6.85;2.37;;;;;;;5.18;76.23;98636.33;1832819;76;21496;-64
2022/04/10 07:06:30;;;;;;;13.53;2.72;;;;;;;5.19;76.01;98648.38;1841095;76;22240;-65
2022/04/10 07:08:57;;;;;;;;;;;;;;;5.12;76.06;98643.44;1841565;76;20922;-65
2022/04/10 07:11:24;;;;;;;9.17;3.00;;;;;;;5.13;76.09;98654.66;1837088;77;20111;-65
2022/04/10 07:13:52;;;;;;;12.07;3.62;;;;;;;5.20;76.38;98659.11;1834731;77;21529;-66
2022/04/10 07:16:19;;;;;;;10.28;3.77;;;;;;;5.37;76.28;98649.70;1837208;77;20918;-66
2022/04/10 07:18:49;;;;;;;11.73;3.30;;;;;;;5.41;75.90;98656.91;1842676;76;24306;-66
2022/04/10 07:23:41;;;;;;;10.85;3.27;;;;;;;5.50;76.07;98663.43;1839830;77;21606;-65
2022/04/10 07:23:46;;;;;;;8.23;3.33;;;;;;;5.60;75.91;98660.37;1835737;76;21027;-65
2022/04/10 07:26:15;;;;;;;7.83;3.20;;;;;;;5.72;76.01;98658.16;1842302;77;21464;-66
2022/04/10 07:28:42;;;;;;;8.30;3.50;;;;;;;5.80;75.72;98656.90;1837496;77;21642;-66
2022/04/10 07:31:10;;;;;;;12.45;3.47;;;;;;;5.90;75.70;98661.66;1840369;77;26474;-66
2022/04/10 07:33:38;;;;;;;12.93;3.02;;;;;;;5.86;75.29;98662.72;1844311;76;21010;-66
2022/04/10 07:36:05;;;;;;;8.00;2.45;;;;;;;5.79;75.42;98663.43;1839183;77;20931;-66
2022/04/10 07:38:31;;;;;;;15.55;3.80;;;;;;;5.75;75.28;98669.67;1839714;77;20973;-66
2022/04/10 07:40:59;;;;;;;11.15;3.27;;;;;;;5.74;75.40;98672.72;1835521;77;20950;-65
2022/04/10 07:43:25;;;;;;;8.50;3.20;;;;;;;5.88;75.64;98679.02;1795709;77;21060;-65
2022/04/10 07:48:38;;;;;;;8.93;3.60;;;;;;;6.01;75.03;98677.59;1802772;78;20980;-66
2022/04/10 07:51:05;;;;;;;11.40;3.98;;;;;;;5.93;74.86;98693.48;1803688;78;21000;-66
2022/04/10 07:53:32;;;;;;;11.08;3.52;;;;;;;5.79;74.79;98695.81;1805008;78;21100;-66
2022/04/10 07:55:59;;;;;;;;;;;;;;;5.78;74.87;98701.91;1806347;79;22223;-66
2022/04/10 07:58:29;;;;;;;11.55;3.42;;;;;;;5.68;74.65;98713.56;1758946;79;20086;-64
2022/04/10 08:00:55;;;;;;;10.32;3.40;;;;;;;5.51;74.43;98707.36;1798962;78;20968;-65
2022/04/10 08:03:22;;;;;;;10.75;3.20;;;;;;;5.41;74.49;98719.03;1806506;78;20958;-65
2022/04/10 08:05:49;;;;;;;10.98;4.00;;;;;;;5.39;74.49;98714.37;1802924;78;21055;-65
2022/04/10 08:08:16;;;;;;;12.33;3.15;;;;;;;5.35;74.34;98724.48;1803421;78;21398;-65
2022/04/10 08:10:43;;;;;;;14.53;3.33;;;;;;;5.41;74.64;98726.80;1806120;78;20989;-65
2022/04/10 08:13:10;;;;;;;14.25;3.15;;;;;;;5.51;74.43;98716.42;1797004;78;21049;-65
2022/04/10 08:15:36;;;;;;;8.43;2.72;;;;;;;5.59;74.22;98728.59;1767532;79;21012;-65
2022/04/10 08:18:03;;;;;;;13.40;3.53;;;;;;;5.57;74.09;98726.55;1802121;78;20969;-65
2022/04/10 08:20:30;;;;;;;9.63;2.75;;;;;;;5.53;73.78;98731.45;1801752;78;22507;-65
2022/04/10 08:22:59;;;;;;;13.22;2.77;;;;;;;5.48;73.67;98735.98;1801495;78;20957;-65
2022/04/10 08:25:28;;;;;;;11.75;3.17;;;;;;;5.49;74.05;98742.86;1802390;78;21040;-65
2022/04/10 08:27:55;;;;;;;15.88;3.50;;;;;;;5.63;73.96;98740.11;1799388;79;22286;-67
2022/04/10 08:30:23;;;;;;;11.33;3.07;;;;;;;5.60;73.56;98741.95;1797369;78;21028;-65
2022/04/10 08:32:50;;;;;;;8.40;2.55;;;;;;;5.42;72.92;98746.59;1803282;79;21071;-65
2022/04/10 08:35:18;;;;;;;12.82;2.95;;;;;;;5.26;72.82;98766.25;1801491;78;25569;-65
2022/04/10 08:37:47;;;;;;;10.18;2.50;;;;;;;5.24;72.61;98762.91;1798921;78;21059;-65
2022/04/10 08:40:13;;;;;;;9.80;2.50;;;;;;;5.24;72.53;98752.55;1800091;78;20988;-65
2022/04/10 08:42:41;;;;;;;11.40;2.47;;;;;;;5.33;72.80;98767.70;1800033;78;21542;-65
2022/04/10 08:45:09;;;;;;;9.55;2.75;;;;;;;5.51;72.88;98764.33;1786679;78;21122;-66
2022/04/10 08:47:39;;;;;;;8.08;2.50;;;;;;;5.64;72.29;98771.59;1800875;78;21060;-66
2022/04/10 08:50:09;;;;;;;9.53;2.58;;;;;;;5.58;71.52;98777.42;1803143;78;21029;-66
2022/04/10 08:52:37;;;;;;;14.15;2.72;;;;;;;5.50;71.94;98782.08;1797369;78;22159;-66
2022/04/10 08:55:06;;;;;;;9.10;2.45;;;;;;;5.49;71.96;98786.88;1796974;78;21016;-65
2022/04/10 08:57:33;;;;;;;12.05;2.70;;;;;;;5.69;72.21;98790.38;1785723;78;21047;-66
2022/04/10 09:00:00;;;;;;;9.87;2.57;;;;;;;5.86;72.01;98777.55;1798957;79;21005;-65
2022/04/10 09:02:27;;;;;;;9.50;2.92;;;;;;;5.85;71.03;98778.44;1798626;78;21032;-65
2022/04/10 09:04:54;;;;;;;9.07;2.67;;;;;;;5.97;71.49;98793.50;1802211;78;21072;-64
2022/04/10 09:07:22;;;;;;;7.45;2.62;;;;;;;6.16;71.33;98784.91;1796090;78;21698;-65
2022/04/10 09:09:56;;;;;;;;;;;;;;;6.17;70.40;98798.27;1795451;79;21450;-65
2022/04/10 09:12:24;;;;;;;6.30;2.42;;;;;;;6.17;70.37;98796.97;1808759;78;20630;-65
2022/04/10 09:14:57;;;;;;;11.40;2.83;;;;;;;6.18;69.78;98809.02;1796153;78;21032;-65
2022/04/10 09:17:23;;;;;;;10.58;2.70;;;;;;;6.21;70.33;98802.39;1797581;78;21024;-65
2022/04/10 09:19:54;;;;;;;9.50;2.45;;;;;;;6.32;70.01;98805.35;1798638;78;20929;-69
2022/04/10 09:22:33;;;;;;;9.13;2.12;;;;;;;6.30;68.82;98810.22;1754714;80;21087;-64
2022/04/10 09:25:17;;;;;;;9.30;2.35;;;;;;;6.30;68.20;98802.44;1780144;79;21024;-66
2022/04/10 09:27:49;;;;;;;10.65;2.20;;;;;;;6.36;68.86;98803.03;1801828;78;21000;-65
2022/04/10 09:30:19;;;;;;;6.70;1.98;;;;;;;6.48;69.45;98794.69;1789132;78;21012;-65
2022/04/10 09:32:52;;;;;;;9.43;2.22;;;;;;;6.66;69.20;98797.34;1779890;78;20976;-66
2022/04/10 09:35:21;;;;;;;8.53;2.35;;;;;;;6.91;69.30;98808.26;1801144;78;22295;-66
2022/04/10 09:38:30;;;;;;;6.03;1.98;;;;;;;7.27;69.03;98804.84;1857817;76;22823;-64
2022/04/10 09:41:02;;;;;;;6.55;1.95;;;;;;;7.47;68.70;98814.72;1817005;77;20977;-64
2022/04/10 09:43:29;;;;;;;14.28;2.62;;;;;;;7.87;69.06;98804.92;1798392;78;21472;-65
2022/04/10 09:45:58;;;;;;;6.65;1.65;;;;;;;8.06;67.93;98812.16;1810599;77;21021;-65
2022/04/10 09:48:30;;;;;;;7.00;2.30;;;;;;;8.02;67.50;98811.95;1803749;77;20969;-64
2022/04/10 09:51:02;;;;;;;7.95;1.90;;;;;;;7.94;67.32;98810.20;1821365;77;20969;-65
2022/04/10 09:53:32;;;;;;;7.60;2.08;;;;;;;7.98;66.90;98809.11;1806454;77;20930;-62
2022/04/10 09:56:07;;;;;;;4.35;2.00;;;;;;;7.82;66.12;98812.51;1815447;78;21123;-62
2022/04/10 09:58:35;;;;;;;6.67;2.15;;;;;;;7.70;65.12;98814.87;1819226;77;21519;-63
2022/04/10 10:01:04;;;;;;;6.45;1.50;;;;;;;7.36;64.34;98809.58;1812767;77;20982;-63
2022/04/10 10:03:36;;;;;;;10.35;2.20;;;;;;;7.01;64.77;98822.13;1823505;78;21268;-63
2022/04/10 10:06:02;;;;;;;7.42;2.87;;;;;;;6.81;65.34;98814.81;1825305;77;20980;-63
2022/04/10 10:08:28;;;;;;;10.13;2.42;;;;;;;6.99;65.08;98827.84;1819206;78;21268;-63
2022/04/10 10:10:56;;;;;;;6.35;2.00;;;;;;;7.21;65.11;98809.03;1818947;77;20831;-63
2022/04/10 10:13:26;;;;;;;9.78;2.02;;;;;;;7.27;64.87;98816.52;1818181;78;20997;-63
2022/04/10 10:16:07;;;;;;;11.35;2.33;;;;;;;7.25;64.30;98822.23;1809842;78;21020;-63
2022/04/10 10:18:25;;;;;;;9.13;2.30;;;;;;;7.38;64.88;98819.91;1799822;77;21001;-68
2022/04/10 10:20:52;;;;;;;6.03;1.60;;;;;;;7.59;64.82;98832.31;1813417;77;21066;-63
2022/04/10 10:23:20;;;;;;;;;;;;;;;7.90;64.60;98833.36;1807489;78;20934;-63
2022/04/10 10:26:15;;;;;;;4.35;1.90;;;;;;;8.02;63.91;98828.39;1797153;77;20439;-63
2022/04/10 10:29:02;;;;;;;6.53;2.75;;;;;;;7.98;64.30;98845.51;1796448;77;20941;-62
2022/04/10 10:31:59;;;;;;;4.37;1.50;;;;;;;8.08;62.27;98841.53;1798344;78;20966;-63
2022/04/10 10:34:31;;;;;;;4.37;1.75;;;;;;;7.72;62.78;98821.67;1805871;77;21133;-64
2022/04/10 10:37:04;;;;;;;5.33;2.00;;;;;;;7.60;63.23;98845.67;1780154;78;20911;-66
2022/04/10 10:39:33;;;;;;;4.92;1.98;;;;;;;7.67;61.68;98841.00;1807276;78;21093;-66
2022/04/10 10:42:13;;;;;;;5.60;2.00;;;;;;;7.53;62.17;98841.68;1810733;77;20906;-67
2022/04/10 10:44:51;;;;;;;4.90;1.42;;;;;;;7.57;62.83;98848.42;1809073;78;21063;-64
2022/04/10 10:47:22;;;;;;;;;;;;;;;7.72;61.88;98858.05;1807045;78;21491;-63
2022/04/10 10:49:53;;;;;;;5.10;2.40;;;;;;;7.55;60.45;98858.04;1803051;78;20074;-65
2022/04/10 10:52:21;;;;;;;8.98;2.45;;;;;;;7.30;61.78;98867.00;1801025;78;21447;-62
2022/04/10 10:54:59;;;;;;;4.97;1.67;;;;;;;6.99;60.84;98869.36;1813547;78;20938;-62
2022/04/10 10:57:40;;;;;;;6.45;1.95;;;;;;;6.85;61.60;98873.42;1819953;77;21566;-61
2022/04/10 11:00:17;;;;;;;7.10;2.58;;;;;;;6.74;62.02;98870.47;1818014;77;21486;-62
2022/04/10 11:02:53;;;;;;;9.20;2.35;;;;;;;6.74;61.63;98867.88;1819760;77;20891;-62
2022/04/10 11:05:40;;;;;;;6.58;1.95;;;;;;;6.74;62.09;98869.17;1822871;77;20945;-62
2022/04/10 11:08:18;;;;;;;6.80;1.65;;;;;;;6.91;61.88;98869.70;1814722;77;21236;-62
2022/04/10 11:11:01;;;;;;;10.23;2.12;;;;;;;7.37;61.94;98871.01;1823241;77;20946;-62
2022/04/10 11:13:42;;;;;;;5.80;1.82;;;;;;;7.95;61.98;98856.06;1819088;78;21442;-64
2022/04/10 11:16:11;;;;;;;5.65;1.57;;;;;;;8.14;61.23;98875.02;1807188;77;21566;-66
2022/04/10 11:18:44;;;;;;;5.30;1.50;;;;;;;8.22;60.59;98878.53;1804318;77;21868;-65
2022/04/10 11:21:16;;;;;;;5.08;1.82;;;;;;;8.23;59.95;98861.56;1802930;78;22467;-63
2022/04/10 11:23:45;;;;;;;3.90;1.90;;;;;;;8.21;60.32;98868.59;1813692;78;20987;-62
2022/04/10 11:26:15;;;;;;;6.40;1.90;;;;;;;8.44;60.97;98853.59;1819672;77;21448;-62
2022/04/10 11:29:05;;;;;;;4.37;1.65;;;;;;;8.49;60.40;98873.24;1818045;77;21080;-63
2022/04/10 11:31:39;;;;;;;6.50;2.58;;;;;;;8.67;60.81;98871.42;1818235;77;21612;-63
2022/04/10 11:34:21;;;;;;;8.23;1.95;;;;;;;9.02;60.74;98871.75;1821397;77;21048;-63
2022/04/10 11:36:53;;;;;;;5.80;2.02;;;;;;;9.20;60.34;98869.45;1812064;77;20942;-63
2022/04/10 11:39:30;;;;;;;5.03;1.82;;;;;;;9.43;60.75;98878.59;1814166;78;20930;-63
2022/04/10 11:42:02;;;;;;;7.78;2.22;;;;;;;9.71;60.03;98871.81;1816031;78;20942;-63
2022/04/10 11:44:29;;;;;;;8.13;2.40;;;;;;;9.51;59.48;98881.61;1812634;78;21060;-63
2022/04/10 11:47:00;;;;;;;7.40;2.17;;;;;;;9.11;58.83;98894.23;1806312;77;20923;-63
2022/04/10 11:49:27;;;;;;;5.47;1.75;;;;;;;8.47;56.70;98888.55;1808254;78;21523;-63
2022/04/10 11:52:00;;;;;;;6.47;1.30;;;;;;;7.94;57.89;98888.19;1809456;78;22196;-63
2022/04/10 11:54:37;;;;;;;3.22;1.57;;;;;;;7.57;57.86;98887.39;1809342;77;21025;-63
2022/04/10 11:57:08;;;;;;;5.55;1.60;;;;;;;7.37;56.88;98891.78;1806807;77;21546;-63